createdAt,value
2023-03-16T15:28:30.878Z,24.10
2023-03-16T15:38:36.988Z,23.80
2023-03-16T15:48:42.451Z,23.50
2023-03-16T15:58:48.149Z,23.80
2023-03-16T16:08:53.237Z,23.50
2023-03-16T16:18:57.791Z,22.70
2023-03-16T16:29:08.787Z,20.50
2023-03-16T16:39:12.865Z,19.40
2023-03-16T16:49:20.865Z,18.70
2023-03-16T16:59:26.701Z,18.80
2023-03-16T17:09:32.106Z,18.30
2023-03-16T17:19:36.598Z,17.50
2023-03-16T17:29:43.025Z,17.30
2023-03-16T17:39:47.457Z,16.90
2023-03-16T17:49:53.142Z,16.50
2023-03-16T17:59:56.957Z,16.20
2023-03-16T18:10:02.349Z,16.10
2023-03-16T18:20:07.291Z,16.00
2023-03-16T18:30:13.843Z,15.70
2023-03-16T18:40:20.271Z,15.50
2023-03-16T18:50:29.178Z,15.60
2023-03-16T19:00:33.777Z,15.60
2023-03-16T19:10:43.572Z,15.10
2023-03-16T19:20:50.289Z,14.10
2023-03-16T19:30:55.867Z,13.70
2023-03-16T19:41:01.134Z,13.40
2023-03-16T19:51:07.138Z,13.10
2023-03-16T20:01:18.081Z,13.00
2023-03-16T20:11:27.542Z,12.80
2023-03-16T20:21:31.699Z,12.90
2023-03-16T20:31:37.825Z,12.90
2023-03-16T20:41:41.681Z,12.70
2023-03-16T20:51:46.953Z,12.60
2023-03-16T21:01:51.916Z,12.60
2023-03-16T21:11:57.091Z,13.00
2023-03-16T21:22:00.887Z,13.00
2023-03-16T21:32:12.590Z,13.20
2023-03-16T21:42:17.445Z,13.30
2023-03-16T21:52:26.939Z,13.50
2023-03-16T22:02:31.312Z,13.90
2023-03-16T22:12:36.571Z,14.40
2023-03-16T22:22:40.273Z,14.80
2023-03-16T22:32:46.557Z,15.00
2023-03-16T22:42:50.436Z,14.80
2023-03-16T22:52:58.150Z,14.80
2023-03-16T23:03:02.408Z,14.50
2023-03-16T23:13:15.536Z,14.70
2023-03-16T23:23:20.216Z,14.80
2023-03-16T23:33:25.398Z,14.60
2023-03-16T23:43:29.297Z,14.50
2023-03-16T23:53:34.393Z,14.90
